Time,TemperatureF,DewpointF,PressureIn,WindDirection,WindDirectionDegrees,WindSpeedMPH,WindSpeedGustMPH,Humidity,HourlyPrecipIn,Conditions,Clouds,dailyrainin,SoftwareType,DateUTC
2013-03-21 00:00:00,61.2,31.0,27.30,ENE,68,0.0,0.0,32,0.00,,,0.00,WUHU216HW,2013-03-21 07:00:00,
2013-03-21 00:05:00,61.2,31.0,27.30,ENE,68,0.0,0.0,32,0.00,,,0.00,WUHU216HW,2013-03-21 07:05:00,
2013-03-21 00:30:00,60.5,31.1,27.28,SW,225,0.0,0.0,33,0.00,,,0.00,WUHU216HW,2013-03-21 07:30:00,
2013-03-21 00:35:00,60.5,31.1,27.29,SW,225,0.0,0.0,33,0.00,,,0.00,WUHU216HW,2013-03-21 07:35:00,
2013-03-21 01:00:00,59.6,31.0,27.29,ESE,113,0.0,0.0,34,0.00,,,0.00,WUHU216HW,2013-03-21 08:00:00,
2013-03-21 01:05:00,59.6,31.0,27.29,ESE,113,0.0,0.0,34,0.00,,,0.00,WUHU216HW,2013-03-21 08:05:00,
2013-03-21 01:30:00,59.2,30.7,27.28,East,90,0.0,0.0,34,0.00,,,0.00,WUHU216HW,2013-03-21 08:30:00,
2013-03-21 01:35:00,59.2,30.7,27.28,East,90,0.0,0.0,34,0.00,,,0.00,WUHU216HW,2013-03-21 08:35:00,
2013-03-21 02:00:00,58.9,31.1,27.27,East,90,0.0,0.0,35,0.00,,,0.00,WUHU216HW,2013-03-21 09:00:00,
2013-03-21 02:05:00,59.0,30.5,27.27,East,90,0.0,0.0,34,0.00,,,0.00,WUHU216HW,2013-03-21 09:05:00,
2013-03-21 02:30:00,58.3,31.3,27.25,East,90,0.0,0.0,36,0.00,,,0.00,WUHU216HW,2013-03-21 09:30:00,
2013-03-21 02:35:00,58.3,31.3,27.25,East,90,0.0,0.0,36,0.00,,,0.00,WUHU216HW,2013-03-21 09:35:00,
2013-03-21 03:00:00,58.3,32.0,27.24,East,90,0.0,0.0,37,0.00,,,0.00,WUHU216HW,2013-03-21 10:00:00,
2013-03-21 03:05:00,58.3,32.0,27.24,East,90,0.0,0.0,37,0.00,,,0.00,WUHU216HW,2013-03-21 10:05:00,
2013-03-21 03:30:00,58.0,32.4,27.24,North,0,0.0,0.0,38,0.00,,,0.00,WUHU216HW,2013-03-21 10:30:00,
2013-03-21 03:35:00,58.0,32.4,27.24,North,0,0.0,0.0,38,0.00,,,0.00,WUHU216HW,2013-03-21 10:35:00,
2013-03-21 04:00:00,57.2,32.4,27.24,ESE,113,0.0,0.0,39,0.00,,,0.00,WUHU216HW,2013-03-21 11:00:00,
2013-03-21 04:05:00,57.2,32.4,27.24,ESE,113,0.0,0.0,39,0.00,,,0.00,WUHU216HW,2013-03-21 11:05:00,
2013-03-21 04:30:00,56.9,32.1,27.24,East,90,0.0,0.0,39,0.00,,,0.00,WUHU216HW,2013-03-21 11:30:00,
2013-03-21 04:35:00,56.9,32.1,27.24,East,90,0.0,0.0,39,0.00,,,0.00,WUHU216HW,2013-03-21 11:35:00,
2013-03-21 05:00:00,56.5,31.8,27.24,NE,45,0.0,0.0,39,0.00,,,0.00,WUHU216HW,2013-03-21 12:00:00,
2013-03-21 05:05:00,56.5,31.8,27.24,NE,45,0.0,0.0,39,0.00,,,0.00,WUHU216HW,2013-03-21 12:05:00,
2013-03-21 05:30:00,55.4,31.5,27.24,ENE,68,0.0,0.0,40,0.00,,,0.00,WUHU216HW,2013-03-21 12:30:00,
2013-03-21 05:35:00,55.4,31.5,27.23,ENE,68,0.0,0.0,40,0.00,,,0.00,WUHU216HW,2013-03-21 12:35:00,
2013-03-21 06:00:00,54.7,31.4,27.24,NE,45,0.0,0.0,41,0.00,,,0.00,WUHU216HW,2013-03-21 13:00:00,
2013-03-21 06:05:00,54.7,31.4,27.24,NE,45,0.0,0.0,41,0.00,,,0.00,WUHU216HW,2013-03-21 13:05:00,
2013-03-21 06:30:00,54.7,32.0,27.24,North,0,0.0,0.0,42,0.00,,,0.00,WUHU216HW,2013-03-21 13:30:00,
2013-03-21 06:35:00,54.7,32.0,27.24,North,0,0.0,0.0,42,0.00,,,0.00,WUHU216HW,2013-03-21 13:35:00,
2013-03-21 07:00:00,55.1,32.9,27.24,North,0,0.0,0.0,43,0.00,,,0.00,WUHU216HW,2013-03-21 14:00:00,
2013-03-21 07:05:00,55.1,32.9,27.24,North,0,0.0,0.0,43,0.00,,,0.00,WUHU216HW,2013-03-21 14:05:00,
2013-03-21 07:10:00,55.1,32.9,27.24,North,0,0.0,0.0,43,0.00,,,0.00,WUHU216HW,2013-03-21 14:10:00,
2013-03-21 07:30:00,55.8,34.1,27.24,North,0,0.0,0.0,44,0.00,,,0.00,WUHU216HW,2013-03-21 14:30:00,
2013-03-21 07:35:00,55.8,34.1,27.24,North,0,0.0,0.0,44,0.00,,,0.00,WUHU216HW,2013-03-21 14:35:00,
2013-03-21 08:00:00,57.8,35.9,27.25,NW,315,0.4,0.4,44,0.00,,,0.00,WUHU216HW,2013-03-21 15:00:00,
2013-03-21 08:05:00,57.8,35.9,27.25,NW,315,0.2,0.4,44,0.00,,,0.00,WUHU216HW,2013-03-21 15:05:00,
2013-03-21 08:30:00,60.8,34.9,27.26,West,270,0.7,0.7,38,0.00,,,0.00,WUHU216HW,2013-03-21 15:30:00,
2013-03-21 08:35:00,60.8,34.9,27.26,WSW,248,0.4,0.7,38,0.00,,,0.00,WUHU216HW,2013-03-21 15:35:00,
2013-03-21 09:00:00,63.4,33.6,27.26,ENE,68,0.0,0.0,33,0.00,,,0.00,WUHU216HW,2013-03-21 16:00:00,
2013-03-21 09:05:00,63.4,33.6,27.26,WSW,248,0.0,0.0,33,0.00,,,0.00,WUHU216HW,2013-03-21 16:05:00,
2013-03-21 09:30:00,65.3,37.5,27.25,SSE,158,0.0,0.0,36,0.00,,,0.00,WUHU216HW,2013-03-21 16:30:00,
2013-03-21 09:35:00,65.3,36.8,27.25,SW,225,0.0,0.0,35,0.00,,,0.00,WUHU216HW,2013-03-21 16:35:00,
2013-03-21 10:00:00,67.7,37.4,27.25,SSE,158,1.1,1.1,33,0.00,,,0.00,WUHU216HW,2013-03-21 17:00:00,
2013-03-21 10:05:00,67.9,37.5,27.25,SSE,158,0.9,1.1,33,0.00,,,0.00,WUHU216HW,2013-03-21 17:05:00,
2013-03-21 10:30:00,69.8,37.1,27.24,ESE,113,0.2,0.2,30,0.00,,,0.00,WUHU216HW,2013-03-21 17:30:00,
2013-03-21 10:35:00,69.8,37.1,27.25,ESE,113,0.4,0.4,30,0.00,,,0.00,WUHU216HW,2013-03-21 17:35:00,
2013-03-21 11:00:00,72.2,37.1,27.25,SE,135,1.1,1.1,28,0.00,,,0.00,WUHU216HW,2013-03-21 18:00:00,
2013-03-21 11:05:00,72.2,37.1,27.24,SSE,158,0.4,1.1,28,0.00,,,0.00,WUHU216HW,2013-03-21 18:05:00,
2013-03-21 11:10:00,72.2,37.1,27.24,SSE,158,0.4,1.1,28,0.00,,,0.00,WUHU216HW,2013-03-21 18:10:00,
2013-03-21 11:30:00,73.8,35.4,27.24,WSW,248,4.3,4.3,25,0.00,,,0.00,WUHU216HW,2013-03-21 18:30:00,
2013-03-21 11:31:00,73.8,35.4,27.24,WSW,248,4.3,4.3,25,0.00,,,0.00,WUHU216HW,2013-03-21 18:31:00,
2013-03-21 11:36:00,73.8,35.4,27.24,WSW,248,4.3,4.3,25,0.00,,,0.00,WUHU216HW,2013-03-21 18:36:00,
2013-03-21 12:00:00,75.1,35.5,27.24,SW,225,3.4,3.4,24,0.00,,,0.00,WUHU216HW,2013-03-21 19:00:00,
2013-03-21 12:05:00,75.2,35.7,27.23,West,270,2.5,3.4,24,0.00,,,0.00,WUHU216HW,2013-03-21 19:05:00,
2013-03-21 12:30:00,76.0,34.1,27.22,WSW,248,2.5,3.6,22,0.00,,,0.00,WUHU216HW,2013-03-21 19:30:00,
2013-03-21 12:31:00,76.0,34.1,27.22,SW,225,3.6,3.6,22,0.00,,,0.00,WUHU216HW,2013-03-21 19:31:00,
2013-03-21 12:36:00,76.0,34.1,27.22,WSW,248,2.5,3.6,22,0.00,,,0.00,WUHU216HW,2013-03-21 19:36:00,
2013-03-21 13:00:00,76.0,33.1,27.22,West,270,2.9,2.9,21,0.00,,,0.00,WUHU216HW,2013-03-21 20:00:00,
2013-03-21 13:05:00,76.0,34.1,27.22,WSW,248,1.8,2.9,22,0.00,,,0.00,WUHU216HW,2013-03-21 20:05:00,
2013-03-21 13:10:00,76.0,34.1,27.22,WSW,248,1.8,2.9,22,0.00,,,0.00,WUHU216HW,2013-03-21 20:10:00,
2013-03-21 13:30:00,76.7,33.7,27.20,WSW,248,2.5,2.5,21,0.00,,,0.00,WUHU216HW,2013-03-21 20:30:00,
2013-03-21 13:31:00,76.7,33.7,27.20,WSW,248,2.5,2.5,21,0.00,,,0.00,WUHU216HW,2013-03-21 20:31:00,
2013-03-21 13:36:00,76.7,33.7,27.20,WSW,248,2.5,2.5,21,0.00,,,0.00,WUHU216HW,2013-03-21 20:36:00,
2013-03-21 14:00:00,76.3,33.4,27.20,WSW,248,3.6,3.6,21,0.00,,,0.00,WUHU216HW,2013-03-21 21:00:00,
2013-03-21 14:05:00,76.3,33.4,27.20,WSW,248,2.5,3.6,21,0.00,,,0.00,WUHU216HW,2013-03-21 21:05:00,
2013-03-21 14:30:00,76.5,33.6,27.18,North,0,5.4,5.4,21,0.00,,,0.00,WUHU216HW,2013-03-21 21:30:00,
2013-03-21 14:31:00,76.3,33.4,27.18,North,0,5.4,5.4,21,0.00,,,0.00,WUHU216HW,2013-03-21 21:31:00,
2013-03-21 14:36:00,76.5,33.6,27.18,North,0,5.4,5.4,21,0.00,,,0.00,WUHU216HW,2013-03-21 21:36:00,
2013-03-21 15:00:00,76.5,33.6,27.18,WSW,248,2.7,2.7,21,0.00,,,0.00,WUHU216HW,2013-03-21 22:00:00,
2013-03-21 15:05:00,76.7,33.7,27.18,WSW,248,2.9,2.9,21,0.00,,,0.00,WUHU216HW,2013-03-21 22:05:00,
2013-03-21 15:30:00,76.3,33.4,27.17,SW,225,1.8,3.6,21,0.00,,,0.00,WUHU216HW,2013-03-21 22:30:00,
2013-03-21 15:31:00,76.3,33.4,27.17,WSW,248,3.6,3.6,21,0.00,,,0.00,WUHU216HW,2013-03-21 22:31:00,
2013-03-21 15:36:00,76.3,33.4,27.17,SW,225,1.8,3.6,21,0.00,,,0.00,WUHU216HW,2013-03-21 22:36:00,
2013-03-21 16:00:00,76.3,33.4,27.17,West,270,3.6,3.6,21,0.00,,,0.00,WUHU216HW,2013-03-21 23:00:00,
2013-03-21 16:05:00,76.1,33.3,27.17,WNW,293,1.8,3.6,21,0.00,,,0.00,WUHU216HW,2013-03-21 23:05:00,
2013-03-21 16:30:00,76.3,33.4,27.17,WNW,293,4.3,4.3,21,0.00,,,0.00,WUHU216HW,2013-03-21 23:30:00,
2013-03-21 16:31:00,76.3,33.4,27.17,WNW,293,4.3,4.3,21,0.00,,,0.00,WUHU216HW,2013-03-21 23:31:00,
2013-03-21 16:36:00,76.3,33.4,27.17,WNW,293,4.3,4.3,21,0.00,,,0.00,WUHU216HW,2013-03-21 23:36:00,
2013-03-21 17:00:00,75.4,32.7,27.16,WNW,293,4.5,4.5,21,0.00,,,0.00,WUHU216HW,2013-03-22 00:00:00,
2013-03-21 17:05:00,75.6,32.9,27.16,WNW,293,4.5,4.5,21,0.00,,,0.00,WUHU216HW,2013-03-22 00:05:00,
2013-03-21 17:10:00,75.6,32.9,27.16,WNW,293,4.5,4.5,21,0.00,,,0.00,WUHU216HW,2013-03-22 00:10:00,
2013-03-21 17:30:00,75.1,29.7,27.17,NNW,338,3.4,3.4,19,0.00,,,0.00,WUHU216HW,2013-03-22 00:30:00,
2013-03-21 17:31:00,75.1,29.7,27.17,West,270,3.4,3.4,19,0.00,,,0.00,WUHU216HW,2013-03-22 00:31:00,
2013-03-21 17:36:00,75.1,29.7,27.17,NNW,338,3.4,3.4,19,0.00,,,0.00,WUHU216HW,2013-03-22 00:36:00,
2013-03-21 18:00:00,74.3,29.2,27.16,WSW,248,4.0,4.0,19,0.00,,,0.00,WUHU216HW,2013-03-22 01:00:00,
2013-03-21 18:05:00,74.3,29.2,27.16,West,270,1.8,4.0,19,0.00,,,0.00,WUHU216HW,2013-03-22 01:05:00,
2013-03-21 18:30:00,73.4,31.1,27.16,West,270,1.8,1.8,21,0.00,,,0.00,WUHU216HW,2013-03-22 01:30:00,
2013-03-21 18:31:00,73.4,31.1,27.16,SW,225,1.8,1.8,21,0.00,,,0.00,WUHU216HW,2013-03-22 01:31:00,
2013-03-21 18:36:00,73.4,31.1,27.16,West,270,1.8,1.8,21,0.00,,,0.00,WUHU216HW,2013-03-22 01:36:00,
2013-03-21 19:00:00,72.5,31.3,27.17,NW,315,0.4,0.4,22,0.00,,,0.00,WUHU216HW,2013-03-22 02:00:00,
2013-03-21 19:05:00,72.5,31.3,27.17,NW,315,0.4,0.7,22,0.00,,,0.00,WUHU216HW,2013-03-22 02:05:00,
2013-03-21 19:10:00,72.5,31.3,27.17,NW,315,0.4,0.7,22,0.00,,,0.00,WUHU216HW,2013-03-22 02:10:00,
2013-03-21 19:30:00,71.8,31.7,27.17,WSW,248,0.4,0.9,23,0.00,,,0.00,WUHU216HW,2013-03-22 02:30:00,
2013-03-21 19:31:00,71.8,31.7,27.17,West,270,0.9,0.9,23,0.00,,,0.00,WUHU216HW,2013-03-22 02:31:00,
2013-03-21 19:36:00,71.8,31.7,27.17,WSW,248,0.4,0.9,23,0.00,,,0.00,WUHU216HW,2013-03-22 02:36:00,
2013-03-21 20:00:00,71.1,31.1,27.17,West,270,0.0,0.0,23,0.00,,,0.00,WUHU216HW,2013-03-22 03:00:00,
2013-03-21 20:05:00,71.1,31.1,27.17,West,270,0.0,0.0,23,0.00,,,0.00,WUHU216HW,2013-03-22 03:05:00,
2013-03-21 20:10:00,71.1,31.1,27.17,West,270,0.0,0.0,23,0.00,,,0.00,WUHU216HW,2013-03-22 03:10:00,
2013-03-21 20:30:00,69.7,30.9,27.18,ENE,68,0.0,0.0,24,0.00,,,0.00,WUHU216HW,2013-03-22 03:30:00,
2013-03-21 20:31:00,69.7,30.9,27.18,ENE,68,0.0,0.0,24,0.00,,,0.00,WUHU216HW,2013-03-22 03:31:00,
2013-03-21 20:36:00,69.7,30.9,27.18,ENE,68,0.0,0.0,24,0.00,,,0.00,WUHU216HW,2013-03-22 03:36:00,
2013-03-21 21:00:00,68.0,31.5,27.17,ESE,113,0.0,0.0,26,0.00,,,0.00,WUHU216HW,2013-03-22 04:00:00,
2013-03-21 21:01:00,68.0,31.5,27.18,ESE,113,0.0,0.0,26,0.00,,,0.00,WUHU216HW,2013-03-22 04:01:00,
2013-03-21 21:06:00,68.0,31.5,27.18,ESE,113,0.0,0.0,26,0.00,,,0.00,WUHU216HW,2013-03-22 04:06:00,
2013-03-21 21:30:00,66.8,32.5,27.18,East,90,0.2,0.4,28,0.00,,,0.00,WUHU216HW,2013-03-22 04:30:00,
2013-03-21 21:31:00,66.8,32.5,27.18,East,90,0.4,0.4,28,0.00,,,0.00,WUHU216HW,2013-03-22 04:31:00,
2013-03-21 21:36:00,66.8,32.5,27.18,East,90,0.2,0.4,28,0.00,,,0.00,WUHU216HW,2013-03-22 04:36:00,
2013-03-21 22:00:00,66.2,33.0,27.18,ESE,113,0.0,0.0,29,0.00,,,0.00,WUHU216HW,2013-03-22 05:00:00,
2013-03-21 22:05:00,66.2,33.0,27.18,ESE,113,0.0,0.0,29,0.00,,,0.00,WUHU216HW,2013-03-22 05:05:00,
2013-03-21 22:30:00,65.7,32.5,27.19,ENE,68,0.0,0.0,29,0.00,,,0.00,WUHU216HW,2013-03-22 05:30:00,
2013-03-21 22:31:00,65.7,32.5,27.19,ENE,68,0.0,0.0,29,0.00,,,0.00,WUHU216HW,2013-03-22 05:31:00,
2013-03-21 22:36:00,65.7,32.5,27.19,ENE,68,0.0,0.0,29,0.00,,,0.00,WUHU216HW,2013-03-22 05:36:00,
2013-03-21 23:00:00,65.2,33.0,27.18,SE,135,0.0,0.0,30,0.00,,,0.00,WUHU216HW,2013-03-22 06:00:00,
2013-03-21 23:05:00,65.2,33.0,27.19,SE,135,0.0,0.0,30,0.00,,,0.00,WUHU216HW,2013-03-22 06:05:00,
2013-03-21 23:30:00,64.8,32.8,27.18,West,270,0.0,0.0,30,0.00,,,0.00,WUHU216HW,2013-03-22 06:30:00,
2013-03-21 23:31:00,64.8,32.8,27.18,West,270,0.0,0.0,30,0.00,,,0.00,WUHU216HW,2013-03-22 06:31:00,
2013-03-21 23:36:00,64.8,32.8,27.18,West,270,0.0,0.0,30,0.00,,,0.00,WUHU216HW,2013-03-22 06:36:00,